createdAt,value
2022-08-03T00:05:08.979Z,67.68
2022-08-03T00:15:16.330Z,68.04
2022-08-03T00:25:20.798Z,67.42
2022-08-03T00:35:36.796Z,65.89
2022-08-03T00:45:44.963Z,65.09
2022-08-03T00:55:49.953Z,65.00
2022-08-03T01:06:02.741Z,65.02
2022-08-03T01:16:35.889Z,65.00
2022-08-03T01:27:26.397Z,65.72
2022-08-03T01:37:48.292Z,65.45
2022-08-03T01:47:56.581Z,70.85
2022-08-03T01:58:05.336Z,74.90
2022-08-03T02:08:11.281Z,77.21
2022-08-03T02:18:14.007Z,79.49
2022-08-03T02:28:18.387Z,89.55
2022-08-03T02:38:26.861Z,96.22
2022-08-03T02:48:33.773Z,98.63
2022-08-03T02:58:42.413Z,97.09
2022-08-03T03:08:44.666Z,96.68
2022-08-03T03:18:49.108Z,94.09
2022-08-03T03:28:53.860Z,95.03
2022-08-03T03:38:56.006Z,92.63
2022-08-03T03:49:03.244Z,90.53
2022-08-03T03:59:06.724Z,85.62
2022-08-03T04:09:33.283Z,83.28
2022-08-03T04:19:43.236Z,79.84
2022-08-03T04:29:54.964Z,77.80
2022-08-03T04:39:58.956Z,72.96
2022-08-03T04:50:10.385Z,67.78
2022-08-03T05:00:20.405Z,66.99
2022-08-03T05:10:43.266Z,69.89
2022-08-03T05:21:10.441Z,74.15
2022-08-03T05:31:26.069Z,74.35
2022-08-03T05:41:37.023Z,66.48
2022-08-03T05:51:46.626Z,65.24
2022-08-03T06:02:03.225Z,69.79
2022-08-03T06:12:14.028Z,71.30
2022-08-03T06:22:30.004Z,65.93
2022-08-03T06:42:52.853Z,65.20
2022-08-03T06:52:59.860Z,66.66
2022-08-03T07:03:05.006Z,70.18
2022-08-03T07:13:18.184Z,65.33
2022-08-03T07:34:07.828Z,57.39
2022-08-03T07:44:12.799Z,53.51
2022-08-03T07:54:20.007Z,53.32
2022-08-03T08:04:31.111Z,50.42
2022-08-03T08:14:37.698Z,47.47
2022-08-03T08:24:51.542Z,46.42
2022-08-03T08:35:00.111Z,41.39
2022-08-03T08:56:28.421Z,40.99
2022-08-03T09:06:35.805Z,43.17
2022-08-03T09:16:57.594Z,41.33
2022-08-03T09:27:14.605Z,41.37
2022-08-03T09:38:11.848Z,42.97
2022-08-03T09:47:54.922Z,43.63
2022-08-03T09:58:07.604Z,42.81
2022-08-03T10:08:18.424Z,41.95
2022-08-03T10:18:20.748Z,43.73
2022-08-03T10:28:26.303Z,42.49
2022-08-03T10:38:58.058Z,41.60
2022-08-03T10:49:13.227Z,40.25
2022-08-03T10:59:28.194Z,39.18
2022-08-03T11:09:58.793Z,38.77
2022-08-03T11:20:05.707Z,38.87
2022-08-03T11:30:27.533Z,39.39
2022-08-03T11:40:50.512Z,39.59
2022-08-03T11:50:52.661Z,39.64
2022-08-03T12:01:07.050Z,38.91
2022-08-03T12:11:14.576Z,38.58
2022-08-03T12:21:18.842Z,37.34
2022-08-03T12:31:21.340Z,37.77
2022-08-03T12:41:43.875Z,37.35
2022-08-03T12:52:07.673Z,37.28
2022-08-03T13:02:18.431Z,37.91
2022-08-03T13:12:26.449Z,37.80
2022-08-03T13:22:34.232Z,36.97
2022-08-03T13:32:43.167Z,37.89
2022-08-03T13:42:48.394Z,36.50
2022-08-03T13:52:55.331Z,36.61
2022-08-03T14:03:12.562Z,36.92
2022-08-03T14:13:17.655Z,37.10
2022-08-03T14:23:21.484Z,37.03
2022-08-03T14:33:30.801Z,37.01
2022-08-03T14:43:35.663Z,37.10
2022-08-03T14:53:44.697Z,37.65
2022-08-03T15:03:51.800Z,37.58
2022-08-03T15:13:56.606Z,37.41
2022-08-03T15:24:03.216Z,37.95
2022-08-03T15:34:12.251Z,37.81
2022-08-03T15:44:22.448Z,37.91
2022-08-03T15:54:31.915Z,37.99
2022-08-03T16:04:35.975Z,38.34
2022-08-03T16:14:51.467Z,38.07
2022-08-03T16:25:07.148Z,38.59
2022-08-03T16:35:21.509Z,38.91
2022-08-03T16:45:25.031Z,38.82
2022-08-03T16:55:52.171Z,39.23
2022-08-03T17:06:02.217Z,39.05
2022-08-03T17:16:08.633Z,39.13
2022-08-03T17:26:21.571Z,39.43
2022-08-03T17:36:41.791Z,39.56
2022-08-03T17:46:56.586Z,39.75
2022-08-03T17:57:41.509Z,39.69
2022-08-03T18:08:11.288Z,39.95
2022-08-03T18:18:29.251Z,39.71
2022-08-03T18:28:44.503Z,40.72
2022-08-03T18:38:53.938Z,40.90
2022-08-03T18:49:28.986Z,41.49
2022-08-03T18:59:58.028Z,42.40
2022-08-03T19:10:10.938Z,42.58
2022-08-03T19:20:29.983Z,43.04
2022-08-03T19:41:07.031Z,43.97
2022-08-03T19:51:27.014Z,44.22
2022-08-03T20:01:51.384Z,44.93
2022-08-03T20:11:53.543Z,45.38
2022-08-03T20:21:59.005Z,45.44
2022-08-03T20:32:03.914Z,45.51
2022-08-03T20:42:22.500Z,45.91
2022-08-03T20:52:33.401Z,47.21
2022-08-03T21:02:37.872Z,49.09
2022-08-03T21:12:52.036Z,51.64
2022-08-03T21:23:06.478Z,53.26
2022-08-03T21:33:10.971Z,54.30
2022-08-03T21:43:19.422Z,53.88
2022-08-03T21:53:23.162Z,55.16
2022-08-03T22:03:29.182Z,57.63
2022-08-03T22:13:43.902Z,61.37
2022-08-03T22:23:49.660Z,64.10
2022-08-03T22:33:55.383Z,66.30
2022-08-03T22:44:04.459Z,66.67
2022-08-03T22:54:07.322Z,67.71
2022-08-03T23:04:13.689Z,68.63
2022-08-03T23:14:27.569Z,69.34
2022-08-03T23:24:33.041Z,69.05
2022-08-03T23:35:02.906Z,68.50
2022-08-03T23:45:09.950Z,67.74
2022-08-03T23:55:43.880Z,67.92
